sensor_id;sensor_type;location;lat;lon;timestamp;pressure;altitude;pressure_sealevel;temperature;humidity
63019;BME280;49105;46.046;10.760;2023-04-23T00:01:53;95349.38;;;12.66;62.26
63019;BME280;49105;46.046;10.760;2023-04-23T00:04:33;95344.94;;;12.62;61.92
63019;BME280;49105;46.046;10.760;2023-04-23T00:07:10;95347.31;;;12.63;62.24
63019;BME280;49105;46.046;10.760;2023-04-23T00:12:44;95347.25;;;12.82;61.97
63019;BME280;49105;46.046;10.760;2023-04-23T00:15:13;95345.09;;;12.84;61.84
63019;BME280;49105;46.046;10.760;2023-04-23T00:17:39;95340.06;;;12.83;61.65
63019;BME280;49105;46.046;10.760;2023-04-23T00:20:14;95342.91;;;12.86;62.05
63019;BME280;49105;46.046;10.760;2023-04-23T00:22:46;95337.03;;;12.89;61.74
63019;BME280;49105;46.046;10.760;2023-04-23T00:25:11;95334.69;;;12.88;61.51
63019;BME280;49105;46.046;10.760;2023-04-23T00:27:43;95335.84;;;12.82;61.58
63019;BME280;49105;46.046;10.760;2023-04-23T00:30:08;95331.88;;;12.79;62.27
63019;BME280;49105;46.046;10.760;2023-04-23T00:32:39;95324.53;;;12.76;61.83
63019;BME280;49105;46.046;10.760;2023-04-23T00:35:14;95324.91;;;12.70;61.53
63019;BME280;49105;46.046;10.760;2023-04-23T00:37:46;95323.34;;;12.69;62.07
63019;BME280;49105;46.046;10.760;2023-04-23T00:40:20;95317.50;;;12.53;62.36
63019;BME280;49105;46.046;10.760;2023-04-23T00:42:50;95326.31;;;12.34;62.86
63019;BME280;49105;46.046;10.760;2023-04-23T00:45:20;95327.38;;;12.33;62.78
63019;BME280;49105;46.046;10.760;2023-04-23T00:47:45;95316.41;;;12.40;62.42
63019;BME280;49105;46.046;10.760;2023-04-23T00:50:11;95327.50;;;12.42;62.75
63019;BME280;49105;46.046;10.760;2023-04-23T00:52:37;95315.31;;;12.41;62.95
63019;BME280;49105;46.046;10.760;2023-04-23T00:55:10;95323.06;;;12.37;63.00
63019;BME280;49105;46.046;10.760;2023-04-23T00:57:36;95326.31;;;12.34;63.18
63019;BME280;49105;46.046;10.760;2023-04-23T01:00:02;95319.94;;;12.35;62.70
63019;BME280;49105;46.046;10.760;2023-04-23T01:02:38;95319.41;;;12.33;63.29
63019;BME280;49105;46.046;10.760;2023-04-23T01:05:16;95328.47;;;12.32;62.98
63019;BME280;49105;46.046;10.760;2023-04-23T01:07:51;95335.63;;;12.32;63.21
63019;BME280;49105;46.046;10.760;2023-04-23T01:10:25;95323.66;;;12.34;63.34
63019;BME280;49105;46.046;10.760;2023-04-23T01:12:51;95315.31;;;12.41;62.91
63019;BME280;49105;46.046;10.760;2023-04-23T01:15:16;95320.31;;;12.42;63.04
63019;BME280;49105;46.046;10.760;2023-04-23T01:17:42;95322.00;;;12.38;63.01
63019;BME280;49105;46.046;10.760;2023-04-23T01:20:16;95322.50;;;12.40;63.11
63019;BME280;49105;46.046;10.760;2023-04-23T01:22:50;95329.88;;;12.44;62.79
63019;BME280;49105;46.046;10.760;2023-04-23T01:25:16;95318.16;;;12.45;62.71
63019;BME280;49105;46.046;10.760;2023-04-23T01:27:51;95317.59;;;12.48;62.75
63019;BME280;49105;46.046;10.760;2023-04-23T01:30:20;95312.97;;;12.53;62.71
63019;BME280;49105;46.046;10.760;2023-04-23T01:32:46;95315.31;;;12.41;62.94
63019;BME280;49105;46.046;10.760;2023-04-23T01:35:11;95328.53;;;12.27;63.38
63019;BME280;49105;46.046;10.760;2023-04-23T01:37:42;95313.09;;;12.29;63.15
63019;BME280;49105;46.046;10.760;2023-04-23T01:40:09;95306.94;;;12.34;63.29
63019;BME280;49105;46.046;10.760;2023-04-23T01:42:43;95316.50;;;12.35;63.02
63019;BME280;49105;46.046;10.760;2023-04-23T01:45:15;95313.84;;;12.35;63.38
63019;BME280;49105;46.046;10.760;2023-04-23T01:47:53;95309.31;;;12.35;62.96
63019;BME280;49105;46.046;10.760;2023-04-23T01:50:28;95313.53;;;12.36;63.01
63019;BME280;49105;46.046;10.760;2023-04-23T01:52:54;95324.31;;;12.26;63.63
63019;BME280;49105;46.046;10.760;2023-04-23T01:55:28;95318.03;;;12.22;63.13
63019;BME280;49105;46.046;10.760;2023-04-23T01:57:54;95322.50;;;12.22;63.17
63019;BME280;49105;46.046;10.760;2023-04-23T02:00:20;95317.38;;;12.11;63.88
63019;BME280;49105;46.046;10.760;2023-04-23T02:02:48;95315.03;;;12.10;63.56
63019;BME280;49105;46.046;10.760;2023-04-23T02:05:16;95316.81;;;12.14;63.58
63019;BME280;49105;46.046;10.760;2023-04-23T02:07:49;95313.66;;;12.12;63.49
63019;BME280;49105;46.046;10.760;2023-04-23T02:12:58;95320.13;;;12.06;63.40
63019;BME280;49105;46.046;10.760;2023-04-23T02:15:30;95321.69;;;12.07;63.25
63019;BME280;49105;46.046;10.760;2023-04-23T02:18:05;95311.66;;;12.04;63.26
63019;BME280;49105;46.046;10.760;2023-04-23T02:20:31;95319.13;;;12.02;63.95
63019;BME280;49105;46.046;10.760;2023-04-23T02:22:56;95311.53;;;11.96;63.65
63019;BME280;49105;46.046;10.760;2023-04-23T02:25:21;95308.88;;;11.96;63.78
63019;BME280;49105;46.046;10.760;2023-04-23T02:27:47;95302.22;;;11.98;63.80
63019;BME280;49105;46.046;10.760;2023-04-23T02:30:13;95303.56;;;11.96;63.87
63019;BME280;49105;46.046;10.760;2023-04-23T02:32:38;95304.94;;;11.93;63.58
63019;BME280;49105;46.046;10.760;2023-04-23T02:35:10;95296.47;;;11.91;63.90
63019;BME280;49105;46.046;10.760;2023-04-23T02:37:35;95306.66;;;11.84;63.76
63019;BME280;49105;46.046;10.760;2023-04-23T02:40:01;95309.31;;;11.65;64.27
63019;BME280;49105;46.046;10.760;2023-04-23T02:42:35;95305.06;;;11.64;64.37
63019;BME280;49105;46.046;10.760;2023-04-23T02:45:06;95309.88;;;11.62;64.56
63019;BME280;49105;46.046;10.760;2023-04-23T02:47:32;95307.78;;;11.59;64.61
63019;BME280;49105;46.046;10.760;2023-04-23T02:50:01;95299.56;;;11.60;64.70
63019;BME280;49105;46.046;10.760;2023-04-23T02:52:36;95302.47;;;11.59;64.76
63019;BME280;49105;46.046;10.760;2023-04-23T02:55:02;95301.22;;;11.56;64.81
63019;BME280;49105;46.046;10.760;2023-04-23T02:57:28;95299.84;;;11.59;64.71
63019;BME280;49105;46.046;10.760;2023-04-23T02:59:53;95295.31;;;11.59;64.72
63019;BME280;49105;46.046;10.760;2023-04-23T03:02:21;95302.22;;;11.60;64.69
63019;BME280;49105;46.046;10.760;2023-04-23T03:04:47;95298.25;;;11.58;64.63
63019;BME280;49105;46.046;10.760;2023-04-23T03:07:12;95301.22;;;11.56;64.83
63019;BME280;49105;46.046;10.760;2023-04-23T03:09:44;95301.22;;;11.56;64.85
63019;BME280;49105;46.046;10.760;2023-04-23T03:12:15;95302.03;;;11.52;64.62
63019;BME280;49105;46.046;10.760;2023-04-23T03:14:42;95305.69;;;11.56;64.60
63019;BME280;49105;46.046;10.760;2023-04-23T03:17:08;95299.84;;;11.59;64.47
63019;BME280;49105;46.046;10.760;2023-04-23T03:19:43;95305.13;;;11.59;64.13
63019;BME280;49105;46.046;10.760;2023-04-23T03:22:17;95303.34;;;11.54;64.54
63019;BME280;49105;46.046;10.760;2023-04-23T03:24:43;95307.28;;;11.57;64.82
63019;BME280;49105;46.046;10.760;2023-04-23T03:27:14;95302.56;;;11.54;64.65
63019;BME280;49105;46.046;10.760;2023-04-23T03:29:49;95300.69;;;11.54;64.63
63019;BME280;49105;46.046;10.760;2023-04-23T03:32:14;95309.13;;;11.37;64.99
63019;BME280;49105;46.046;10.760;2023-04-23T03:34:40;95308.25;;;11.23;65.45
63019;BME280;49105;46.046;10.760;2023-04-23T03:37:05;95309.16;;;11.13;65.56
63019;BME280;49105;46.046;10.760;2023-04-23T03:39:30;95307.31;;;11.14;65.70
63019;BME280;49105;46.046;10.760;2023-04-23T03:42:08;95309.06;;;11.24;65.58
63019;BME280;49105;46.046;10.760;2023-04-23T03:44:45;95309.25;;;11.27;65.24
63019;BME280;49105;46.046;10.760;2023-04-23T03:47:14;95315.56;;;11.31;65.40
63019;BME280;49105;46.046;10.760;2023-04-23T03:49:49;95322.16;;;11.34;65.43
63019;BME280;49105;46.046;10.760;2023-04-23T03:52:23;95308.63;;;11.35;65.10
63019;BME280;49105;46.046;10.760;2023-04-23T03:54:49;95320.81;;;11.36;65.08
63019;BME280;49105;46.046;10.760;2023-04-23T03:57:24;95311.72;;;11.42;65.09
63019;BME280;49105;46.046;10.760;2023-04-23T03:59:52;95312.16;;;11.50;64.83
63019;BME280;49105;46.046;10.760;2023-04-23T04:05:03;95306.28;;;11.53;64.60
63019;BME280;49105;46.046;10.760;2023-04-23T04:07:32;95305.50;;;11.52;64.72
63019;BME280;49105;46.046;10.760;2023-04-23T04:10:04;95308.78;;;11.44;64.94
63019;BME280;49105;46.046;10.760;2023-04-23T04:12:30;95307.97;;;11.43;64.87
63019;BME280;49105;46.046;10.760;2023-04-23T04:15:08;95304.78;;;11.47;64.88
63019;BME280;49105;46.046;10.760;2023-04-23T04:17:34;95301.78;;;11.53;64.96
63019;BME280;49105;46.046;10.760;2023-04-23T04:20:08;95303.34;;;11.54;64.80
63019;BME280;49105;46.046;10.760;2023-04-23T04:22:41;95306.78;;;11.55;64.67
63019;BME280;49105;46.046;10.760;2023-04-23T04:25:06;95309.59;;;11.45;64.61
63019;BME280;49105;46.046;10.760;2023-04-23T04:27:31;95306.50;;;11.37;65.04
63019;BME280;49105;46.046;10.760;2023-04-23T04:30:07;95302.53;;;11.35;65.13
63019;BME280;49105;46.046;10.760;2023-04-23T04:32:33;95300.97;;;11.34;65.09
63019;BME280;49105;46.046;10.760;2023-04-23T04:35:07;95301.03;;;11.29;65.41
63019;BME280;49105;46.046;10.760;2023-04-23T04:37:40;95304.47;;;11.29;65.40
63019;BME280;49105;46.046;10.760;2023-04-23T04:40:10;95303.31;;;11.35;65.16
63019;BME280;49105;46.046;10.760;2023-04-23T04:42:42;95306.97;;;11.39;65.37
63019;BME280;49105;46.046;10.760;2023-04-23T04:45:10;95309.59;;;11.45;64.95
63019;BME280;49105;46.046;10.760;2023-04-23T04:47:36;95308.28;;;11.42;65.17
63019;BME280;49105;46.046;10.760;2023-04-23T04:50:07;95316.72;;;11.25;65.56
63019;BME280;49105;46.046;10.760;2023-04-23T04:52:42;95317.63;;;11.15;65.75
63019;BME280;49105;46.046;10.760;2023-04-23T04:55:11;95314.97;;;11.15;65.84
63019;BME280;49105;46.046;10.760;2023-04-23T04:57:42;95314.91;;;11.21;65.59
63019;BME280;49105;46.046;10.760;2023-04-23T05:03:17;95323.13;;;11.19;65.84
63019;BME280;49105;46.046;10.760;2023-04-23T05:05:48;95324.50;;;11.16;66.06
63019;BME280;49105;46.046;10.760;2023-04-23T05:08:20;95322.63;;;11.17;66.05
63019;BME280;49105;46.046;10.760;2023-04-23T05:10:49;95326.16;;;11.31;65.88
63019;BME280;49105;46.046;10.760;2023-04-23T05:13:26;95330.56;;;11.41;65.64
63019;BME280;49105;46.046;10.760;2023-04-23T05:16:04;95314.28;;;11.48;65.52
63019;BME280;49105;46.046;10.760;2023-04-23T05:18:36;95325.63;;;11.53;65.60
63019;BME280;49105;46.046;10.760;2023-04-23T05:21:02;95326.63;;;11.57;65.16
63019;BME280;49105;46.046;10.760;2023-04-23T05:23:27;95326.63;;;11.57;65.44
63019;BME280;49105;46.046;10.760;2023-04-23T05:25:52;95327.72;;;11.56;65.57
63019;BME280;49105;46.046;10.760;2023-04-23T05:28:29;95327.72;;;11.56;65.14
63019;BME280;49105;46.046;10.760;2023-04-23T05:31:00;95330.28;;;11.61;65.30
63019;BME280;49105;46.046;10.760;2023-04-23T05:33:28;95331.22;;;11.71;65.21
63019;BME280;49105;46.046;10.760;2023-04-23T05:35:54;95332.72;;;11.77;65.43
63019;BME280;49105;46.046;10.760;2023-04-23T05:38:20;95330.91;;;11.72;65.43
63019;BME280;49105;46.046;10.760;2023-04-23T05:40:45;95323.84;;;11.67;65.55
63019;BME280;49105;46.046;10.760;2023-04-23T05:43:17;95327.22;;;11.73;65.63
63019;BME280;49105;46.046;10.760;2023-04-23T05:45:51;95323.88;;;11.86;65.46
63019;BME280;49105;46.046;10.760;2023-04-23T05:48:16;95324.13;;;12.04;65.19
63019;BME280;49105;46.046;10.760;2023-04-23T05:50:48;95320.69;;;12.03;65.14
63019;BME280;49105;46.046;10.760;2023-04-23T05:53:26;95326.31;;;12.02;65.08
63019;BME280;49105;46.046;10.760;2023-04-23T05:56:00;95324.06;;;12.09;65.45
63019;BME280;49105;46.046;10.760;2023-04-23T05:58:26;95321.91;;;12.11;65.39
63019;BME280;49105;46.046;10.760;2023-04-23T06:00:51;95314.84;;;12.20;65.03
63019;BME280;49105;46.046;10.760;2023-04-23T06:03:23;95321.38;;;12.28;65.35
63019;BME280;49105;46.046;10.760;2023-04-23T06:06:03;95330.81;;;12.34;65.03
63019;BME280;49105;46.046;10.760;2023-04-23T06:08:41;95319.13;;;12.35;64.70
63019;BME280;49105;46.046;10.760;2023-04-23T06:11:15;95322.19;;;12.42;65.18
63019;BME280;49105;46.046;10.760;2023-04-23T06:13:46;95320.25;;;12.48;64.41
63019;BME280;49105;46.046;10.760;2023-04-23T06:16:17;95320.63;;;12.55;64.23
63019;BME280;49105;46.046;10.760;2023-04-23T06:18:52;95321.25;;;12.52;64.22
63019;BME280;49105;46.046;10.760;2023-04-23T06:21:18;95311.28;;;12.44;64.64
63019;BME280;49105;46.046;10.760;2023-04-23T06:23:43;95317.97;;;12.41;64.04
63019;BME280;49105;46.046;10.760;2023-04-23T06:26:11;95314.72;;;12.44;64.51
63019;BME280;49105;46.046;10.760;2023-04-23T06:28:43;95315.94;;;12.52;64.52
63019;BME280;49105;46.046;10.760;2023-04-23T06:31:12;95322.03;;;12.66;64.21
63019;BME280;49105;46.046;10.760;2023-04-23T06:33:47;95316.16;;;12.69;64.04
63019;BME280;49105;46.046;10.760;2023-04-23T06:36:12;95314.97;;;12.75;63.28
63019;BME280;49105;46.046;10.760;2023-04-23T06:41:47;95311.06;;;13.14;62.83
63019;BME280;49105;46.046;10.760;2023-04-23T06:44:12;95311.06;;;13.28;62.62
63019;BME280;49105;46.046;10.760;2023-04-23T06:46:38;95314.31;;;13.38;62.75
63019;BME280;49105;46.046;10.760;2023-04-23T06:49:06;95302.97;;;13.47;62.80
63019;BME280;49105;46.046;10.760;2023-04-23T06:51:38;95303.38;;;13.54;62.52
63019;BME280;49105;46.046;10.760;2023-04-23T06:54:03;95300.59;;;13.59;62.20
63019;BME280;49105;46.046;10.760;2023-04-23T06:56:35;95307.34;;;13.65;62.67
63019;BME280;49105;46.046;10.760;2023-04-23T06:59:09;95303.50;;;13.71;62.94
63019;BME280;49105;46.046;10.760;2023-04-23T07:01:41;95305.22;;;13.89;62.62
63019;BME280;49105;46.046;10.760;2023-04-23T07:04:06;95299.69;;;14.00;62.54
63019;BME280;49105;46.046;10.760;2023-04-23T07:06:38;95308.81;;;14.07;62.02
63019;BME280;49105;46.046;10.760;2023-04-23T07:09:03;95295.56;;;14.16;61.73
63019;BME280;49105;46.046;10.760;2023-04-23T07:11:29;95296.22;;;14.22;61.43
63019;BME280;49105;46.046;10.760;2023-04-23T07:13:58;95296.72;;;14.24;61.48
63019;BME280;49105;46.046;10.760;2023-04-23T07:16:33;95295.44;;;14.21;61.22
63019;BME280;49105;46.046;10.760;2023-04-23T07:18:59;95295.91;;;14.23;61.58
63019;BME280;49105;46.046;10.760;2023-04-23T07:21:34;95291.22;;;14.20;61.15
63019;BME280;49105;46.046;10.760;2023-04-23T07:24:00;95284.28;;;14.19;61.54
63019;BME280;49105;46.046;10.760;2023-04-23T07:26:33;95275.53;;;14.19;61.21
63019;BME280;49105;46.046;10.760;2023-04-23T07:28:59;95276.31;;;14.19;60.99
63019;BME280;49105;46.046;10.760;2023-04-23T07:31:25;95277.41;;;14.18;61.41
63019;BME280;49105;46.046;10.760;2023-04-23T07:33:56;95277.78;;;14.25;61.04
63019;BME280;49105;46.046;10.760;2023-04-23T07:36:22;95269.66;;;14.30;61.42
63019;BME280;49105;46.046;10.760;2023-04-23T07:38:56;95278.59;;;14.34;60.52
63019;BME280;49105;46.046;10.760;2023-04-23T07:41:24;95274.41;;;14.42;60.59
63019;BME280;49105;46.046;10.760;2023-04-23T07:43:59;95272.59;;;14.51;60.52
63019;BME280;49105;46.046;10.760;2023-04-23T07:46:25;95270.25;;;14.50;60.13
63019;BME280;49105;46.046;10.760;2023-04-23T07:48:59;95271.63;;;14.47;60.53
63019;BME280;49105;46.046;10.760;2023-04-23T07:51:24;95271.81;;;14.51;60.16
63019;BME280;49105;46.046;10.760;2023-04-23T07:53:53;95265.19;;;14.48;60.21
63019;BME280;49105;46.046;10.760;2023-04-23T07:56:26;95260.00;;;14.43;60.25
63019;BME280;49105;46.046;10.760;2023-04-23T07:58:51;95260.94;;;14.38;60.54
63019;BME280;49105;46.046;10.760;2023-04-23T08:01:24;95259.22;;;14.43;60.87
63019;BME280;49105;46.046;10.760;2023-04-23T08:03:58;95256.94;;;14.50;60.06
63019;BME280;49105;46.046;10.760;2023-04-23T08:06:30;95258.09;;;14.57;60.10
63019;BME280;49105;46.046;10.760;2023-04-23T08:09:01;95261.03;;;14.56;59.97
63019;BME280;49105;46.046;10.760;2023-04-23T08:11:39;95254.84;;;14.69;59.84
63019;BME280;49105;46.046;10.760;2023-04-23T08:17:07;95243.66;;;14.98;59.74
63019;BME280;49105;46.046;10.760;2023-04-23T08:19:33;95245.09;;;15.13;59.14
63019;BME280;49105;46.046;10.760;2023-04-23T08:22:07;95245.09;;;15.13;59.40
63019;BME280;49105;46.046;10.760;2023-04-23T08:24:34;95238.19;;;15.12;59.18
63019;BME280;49105;46.046;10.760;2023-04-23T08:26:59;95242.94;;;15.24;59.15
63019;BME280;49105;46.046;10.760;2023-04-23T08:29:35;95238.38;;;15.33;58.78
63019;BME280;49105;46.046;10.760;2023-04-23T08:32:09;95239.16;;;15.33;58.66
63019;BME280;49105;46.046;10.760;2023-04-23T08:34:47;95247.50;;;15.32;58.61
63019;BME280;49105;46.046;10.760;2023-04-23T08:37:12;95238.38;;;15.42;58.79
63019;BME280;49105;46.046;10.760;2023-04-23T08:39:41;95234.78;;;15.55;58.58
63019;BME280;49105;46.046;10.760;2023-04-23T08:42:10;95237.31;;;15.60;58.19
63019;BME280;49105;46.046;10.760;2023-04-23T08:44:48;95234.34;;;15.70;58.37
63019;BME280;49105;46.046;10.760;2023-04-23T08:47:20;95232.16;;;15.81;58.18
63019;BME280;49105;46.046;10.760;2023-04-23T08:49:53;95229.94;;;15.92;57.95
63019;BME280;49105;46.046;10.760;2023-04-23T08:52:25;95226.97;;;16.02;57.65
63019;BME280;49105;46.046;10.760;2023-04-23T08:54:53;95220.34;;;16.08;57.23
63019;BME280;49105;46.046;10.760;2023-04-23T08:57:23;95222.19;;;16.16;57.06
63019;BME280;49105;46.046;10.760;2023-04-23T08:59:58;95215.47;;;16.19;56.64
63019;BME280;49105;46.046;10.760;2023-04-23T09:02:24;95218.72;;;16.24;56.03
63019;BME280;49105;46.046;10.760;2023-04-23T09:04:50;95213.53;;;16.28;55.38
63019;BME280;49105;46.046;10.760;2023-04-23T09:07:21;95221.25;;;16.29;54.94
63019;BME280;49105;46.046;10.760;2023-04-23T09:09:46;95212.22;;;16.51;54.86
63019;BME280;49105;46.046;10.760;2023-04-23T09:12:21;95211.34;;;16.77;54.76
63019;BME280;49105;46.046;10.760;2023-04-23T09:14:55;95213.16;;;16.94;54.88
63019;BME280;49105;46.046;10.760;2023-04-23T09:17:21;95205.41;;;17.01;54.82
63019;BME280;49105;46.046;10.760;2023-04-23T09:19:51;95199.53;;;17.07;54.51
63019;BME280;49105;46.046;10.760;2023-04-23T09:25:08;95182.41;;;17.29;54.14
63019;BME280;49105;46.046;10.760;2023-04-23T09:27:40;95178.91;;;17.38;53.95
63019;BME280;49105;46.046;10.760;2023-04-23T09:30:06;95176.50;;;17.45;54.13
63019;BME280;49105;46.046;10.760;2023-04-23T09:32:39;95173.34;;;17.43;54.07
63019;BME280;49105;46.046;10.760;2023-04-23T09:35:09;95168.69;;;17.52;53.56
63019;BME280;49105;46.046;10.760;2023-04-23T09:37:43;95164.53;;;17.63;52.73
63019;BME280;49105;46.046;10.760;2023-04-23T09:40:18;95170.31;;;17.65;51.83
63019;BME280;49105;46.046;10.760;2023-04-23T09:42:56;95161.41;;;17.61;51.49
63019;BME280;49105;46.046;10.760;2023-04-23T09:45:21;95156.50;;;17.63;51.60
63019;BME280;49105;46.046;10.760;2023-04-23T09:47:54;95153.16;;;17.66;52.24
63019;BME280;49105;46.046;10.760;2023-04-23T09:53:23;95149.38;;;17.67;51.93
63019;BME280;49105;46.046;10.760;2023-04-23T09:58:46;95140.84;;;17.53;51.72
63019;BME280;49105;46.046;10.760;2023-04-23T10:01:12;95143.41;;;17.49;51.49
63019;BME280;49105;46.046;10.760;2023-04-23T10:03:45;95148.41;;;17.51;51.82
63019;BME280;49105;46.046;10.760;2023-04-23T10:06:26;95144.78;;;17.68;51.93
63019;BME280;49105;46.046;10.760;2023-04-23T10:08:53;95139.28;;;17.85;51.25
63019;BME280;49105;46.046;10.760;2023-04-23T10:11:29;95141.13;;;18.05;51.17
63019;BME280;49105;46.046;10.760;2023-04-23T10:13:54;95143.94;;;18.09;50.91
63019;BME280;49105;46.046;10.760;2023-04-23T10:16:23;95140.34;;;18.05;50.87
63019;BME280;49105;46.046;10.760;2023-04-23T10:18:54;95143.50;;;18.07;50.59
63019;BME280;49105;46.046;10.760;2023-04-23T10:21:25;95140.47;;;18.08;50.47
63019;BME280;49105;46.046;10.760;2023-04-23T10:24:05;95133.91;;;18.18;50.63
63019;BME280;49105;46.046;10.760;2023-04-23T10:26:31;95133.47;;;18.16;50.14
63019;BME280;49105;46.046;10.760;2023-04-23T10:28:57;95135.69;;;18.26;49.85
63019;BME280;49105;46.046;10.760;2023-04-23T10:31:24;95127.34;;;18.40;50.19
63019;BME280;49105;46.046;10.760;2023-04-23T10:33:49;95120.53;;;18.55;49.77
63019;BME280;49105;46.046;10.760;2023-04-23T10:36:24;95119.44;;;18.56;49.23
63019;BME280;49105;46.046;10.760;2023-04-23T10:38:51;95128.25;;;18.69;49.29
63019;BME280;49105;46.046;10.760;2023-04-23T10:41:27;95130.03;;;18.89;49.31
63019;BME280;49105;46.046;10.760;2023-04-23T10:43:57;95130.59;;;18.95;49.25
63019;BME280;49105;46.046;10.760;2023-04-23T10:46:31;95127.66;;;19.00;49.05
63019;BME280;49105;46.046;10.760;2023-04-23T10:49:07;95121.94;;;19.14;49.20
63019;BME280;49105;46.046;10.760;2023-04-23T10:51:46;95110.25;;;19.34;49.17
63019;BME280;49105;46.046;10.760;2023-04-23T10:54:18;95118.16;;;19.43;47.85
63019;BME280;49105;46.046;10.760;2023-04-23T10:56:43;95111.25;;;19.29;47.55
63019;BME280;49105;46.046;10.760;2023-04-23T10:59:21;95107.91;;;19.32;48.06
63019;BME280;49105;46.046;10.760;2023-04-23T11:01:48;95111.56;;;19.40;47.90
63019;BME280;49105;46.046;10.760;2023-04-23T11:04:23;95107.44;;;19.43;48.17
63019;BME280;49105;46.046;10.760;2023-04-23T11:07:08;95109.72;;;19.56;48.19
63019;BME280;49105;46.046;10.760;2023-04-23T11:09:46;95111.84;;;19.63;48.16
63019;BME280;49105;46.046;10.760;2023-04-23T11:14:47;95093.41;;;19.21;47.14
63019;BME280;49105;46.046;10.760;2023-04-23T11:17:14;95104.63;;;19.11;47.16
63019;BME280;49105;46.046;10.760;2023-04-23T11:19:40;95091.66;;;19.01;46.65
63019;BME280;49105;46.046;10.760;2023-04-23T11:22:15;95104.31;;;19.00;46.12
63019;BME280;49105;46.046;10.760;2023-04-23T11:24:47;95107.09;;;19.04;46.42
63019;BME280;49105;46.046;10.760;2023-04-23T11:30:28;95095.63;;;18.79;46.46
63019;BME280;49105;46.046;10.760;2023-04-23T11:32:54;95097.78;;;18.73;46.63
63019;BME280;49105;46.046;10.760;2023-04-23T11:35:26;95102.88;;;18.66;46.82
63019;BME280;49105;46.046;10.760;2023-04-23T11:38:01;95100.44;;;18.61;46.73
63019;BME280;49105;46.046;10.760;2023-04-23T11:40:38;95098.31;;;18.67;47.13
63019;BME280;49105;46.046;10.760;2023-04-23T11:43:04;95085.94;;;18.74;46.72
63019;BME280;49105;46.046;10.760;2023-04-23T11:45:39;95082.56;;;18.77;46.64
63019;BME280;49105;46.046;10.760;2023-04-23T11:48:05;95076.31;;;18.86;46.98
63019;BME280;49105;46.046;10.760;2023-04-23T11:50:31;95067.00;;;18.95;46.85
63019;BME280;49105;46.046;10.760;2023-04-23T11:52:57;95074.81;;;19.00;46.84
63019;BME280;49105;46.046;10.760;2023-04-23T11:55:37;95080.94;;;19.01;46.15
63019;BME280;49105;46.046;10.760;2023-04-23T11:58:08;95069.34;;;18.97;46.18
63019;BME280;49105;46.046;10.760;2023-04-23T12:00:44;95066.41;;;19.14;46.29
63019;BME280;49105;46.046;10.760;2023-04-23T12:03:16;95068.94;;;19.23;46.39
63019;BME280;49105;46.046;10.760;2023-04-23T12:05:50;95057.66;;;19.17;45.73
63019;BME280;49105;46.046;10.760;2023-04-23T12:08:21;95051.03;;;18.99;45.54
63019;BME280;49105;46.046;10.760;2023-04-23T12:10:54;95039.97;;;18.88;45.91
63019;BME280;49105;46.046;10.760;2023-04-23T12:13:38;95035.88;;;18.78;45.71
63019;BME280;49105;46.046;10.760;2023-04-23T12:16:03;95035.66;;;18.71;46.12
63019;BME280;49105;46.046;10.760;2023-04-23T12:18:41;95041.81;;;18.72;46.18
63019;BME280;49105;46.046;10.760;2023-04-23T12:21:09;95044.81;;;18.70;46.28
63019;BME280;49105;46.046;10.760;2023-04-23T12:23:50;95036.66;;;18.67;46.66
63019;BME280;49105;46.046;10.760;2023-04-23T12:26:25;95051.09;;;18.50;46.49
63019;BME280;49105;46.046;10.760;2023-04-23T12:28:51;95045.50;;;18.18;46.60
63019;BME280;49105;46.046;10.760;2023-04-23T12:31:26;95045.75;;;18.01;46.93
63019;BME280;49105;46.046;10.760;2023-04-23T12:34:06;95045.50;;;17.94;47.18
63019;BME280;49105;46.046;10.760;2023-04-23T12:36:32;95061.09;;;17.79;47.34
63019;BME280;49105;46.046;10.760;2023-04-23T12:41:42;95060.91;;;17.51;47.43
63019;BME280;49105;46.046;10.760;2023-04-23T12:44:17;95061.00;;;17.43;47.44
63019;BME280;49105;46.046;10.760;2023-04-23T12:46:56;95060.28;;;17.33;48.00
63019;BME280;49105;46.046;10.760;2023-04-23T12:49:25;95055.81;;;17.25;48.72
63019;BME280;49105;46.046;10.760;2023-04-23T12:51:51;95048.56;;;17.26;49.49
63019;BME280;49105;46.046;10.760;2023-04-23T12:54:17;95049.72;;;17.37;49.95
63019;BME280;49105;46.046;10.760;2023-04-23T12:56:42;95055.88;;;17.50;50.17
63019;BME280;49105;46.046;10.760;2023-04-23T12:59:08;95058.47;;;17.58;50.27
63019;BME280;49105;46.046;10.760;2023-04-23T13:01:33;95059.94;;;17.68;50.35
63019;BME280;49105;46.046;10.760;2023-04-23T13:07:01;95055.81;;;17.71;50.18
63019;BME280;49105;46.046;10.760;2023-04-23T13:09:36;95063.06;;;17.70;50.14
63019;BME280;49105;46.046;10.760;2023-04-23T13:12:01;95056.94;;;17.70;50.28
63019;BME280;49105;46.046;10.760;2023-04-23T13:14:32;95058.13;;;17.60;50.27
63019;BME280;49105;46.046;10.760;2023-04-23T13:17:10;95054.50;;;17.44;50.38
63019;BME280;49105;46.046;10.760;2023-04-23T13:19:39;95057.63;;;17.33;50.81
63019;BME280;49105;46.046;10.760;2023-04-23T13:22:04;95049.56;;;17.21;50.82
63019;BME280;49105;46.046;10.760;2023-04-23T13:24:30;95053.72;;;17.10;51.32
63019;BME280;49105;46.046;10.760;2023-04-23T13:26:56;95053.94;;;17.05;51.13
63019;BME280;49105;46.046;10.760;2023-04-23T13:29:27;95046.56;;;17.02;51.43
63019;BME280;49105;46.046;10.760;2023-04-23T13:32:02;95043.19;;;16.93;51.85
63019;BME280;49105;46.046;10.760;2023-04-23T13:34:27;95031.59;;;16.89;52.63
63019;BME280;49105;46.046;10.760;2023-04-23T13:36:59;95035.16;;;16.93;52.87
63019;BME280;49105;46.046;10.760;2023-04-23T13:39:29;95036.22;;;17.00;52.72
63019;BME280;49105;46.046;10.760;2023-04-23T13:42:01;95038.34;;;17.07;53.03
63019;BME280;49105;46.046;10.760;2023-04-23T13:44:28;95045.00;;;17.01;53.23